Airfield :
LOGIN :

Register | Disclaimer

   EN    FR    IT 

 










Legend :    VFR   Marginal VFR   IFR   Intensive IFR   Very Intensive IFR
Visi :
Ceiling :
>= 8 km
>= 3000ft
5 to 8 km
1000 to 3000 ft
1500m to 5 km
500 to 1000 ft
800 to 1500m
200 to 500 ft
< 800m
< 200 ft
Symbols :   Thunderstorms  Fog  Heavy snow  Heavy precipitations  Wind > 20 kt
SIGMETs :     Misc.  Thunderstorms  Icing  Turbulence  Mountain Waves  Volcanic Ashes






- Airport Elevation : 32 ft
- IATA code : NRK


ESSP - Norrköping

CURRENT METAR :
  • 290750Z 06007KT 9999 BKN006 03/02 Q1027

EXPIRED METARs :
  • 290720Z 06008KT 9999 -DZ BKN006 03/02 Q1027
  • 290650Z 06007KT 9999 FEW006 OVC013 03/02 Q1026
  • 290620Z 05008KT 9999 FEW007 BKN013 03/02 Q1026
  • 290550Z AUTO 05007KT 9999 FEW012/// OVC021/// 03/02 Q1026
  • 290520Z AUTO 06008KT 9999 -DZ SCT013/// BKN022/// OVC028/// 03/02 Q1026

TAF TAF ESSP
Valid from the 29 at 07:00 until the 29 at 15:00 UTC


290630Z 2907/2915 05007KT 9999 SCT010 BKN020
TEMPO 2907/2915 4000 -RADZ BKN007



MET'MAP, your aeronautical weather chart ! - Copyright ORBIFLY December 2007 - Disclaimer

ORBIFLY MET'MAP TEAM :

Programming & Development : Alexandra Zaïnal
Original concept : Baudouin d'Aumeries
Technical & hardware support : Manuel Goepfert
Assistance : Marc-Olivier Méhu




SOURCES & CREDITS :

   NOAA